KLZU

Gwinnett County - Briscoe Field Airport

Lawrenceville, Georgia, USA
METAR KLZU 212256Z 24009KT 10SM FEW120 26/23 A2987 RMK AO2 SLP113 T02610233
Observed Flight Rules
Jun-21 @ 22:56 UTC (an hour ago) Visual Flight Rules
Wind Visibility Clouds
240° at 9 knots 10 miles
  • Few at 12,000' AGL
Temperatures Readings
Current 26°C / 79°F
Dewpoint 23°C / 73°F
Humidity 84%
Altimeter 29.87" Hg
Pressure 1011.3 hPa
Elevation 323
METAR KLZU 212256Z 24009KT 10SM FEW120 26/23 A2987 RMK AO2 SLP113 T02610233
Observed Flight Rules
Jun-21 @ 22:56 UTC
(an hour ago)
VFR
Wind Visibility
240° at 9 knots 10 miles
Clouds
  • Few at 12,000' AGL
Temperature Dewpoint
26°C / 79°F 23°C / 73°F
Humidity Altimeter Pressure
84% 29.87" Hg 1011.3 hPa